createdAt,value
2019-03-01T00:04:09.964Z,45.00
2019-03-01T00:09:27.895Z,45.25
2019-03-01T00:14:39.505Z,44.00
2019-03-01T00:19:55.335Z,45.00
2019-03-01T00:25:07.058Z,46.00
2019-03-01T00:30:15.468Z,43.75
2019-03-01T00:35:22.987Z,42.33
2019-03-01T00:40:38.907Z,45.00
2019-03-01T00:45:45.619Z,45.00
2019-03-01T00:50:54.834Z,44.00
2019-03-01T00:55:59.917Z,43.75
2019-03-01T01:01:04.211Z,42.00
2019-03-01T01:06:10.062Z,42.25
2019-03-01T01:11:15.734Z,41.20
2019-03-01T01:16:24.023Z,43.13
2019-03-01T01:21:28.972Z,43.00
2019-03-01T01:26:38.259Z,45.56
2019-03-01T01:31:47.709Z,47.38
2019-03-01T01:36:54.275Z,48.67
2019-03-01T01:41:59.202Z,51.00
2019-03-01T01:47:07.797Z,48.00
2019-03-01T01:52:13.536Z,47.62
2019-03-01T01:57:22.192Z,48.89
2019-03-01T02:02:33.046Z,50.08
2019-03-01T02:07:36.543Z,48.00
2019-03-01T02:12:43.967Z,48.89
2019-03-01T02:17:50.846Z,49.50
2019-03-01T02:23:01.080Z,45.78
2019-03-01T02:28:09.620Z,44.50
2019-03-01T02:33:18.948Z,45.88
2019-03-01T02:38:28.312Z,48.00
2019-03-01T02:43:35.894Z,47.00
2019-03-01T02:48:46.139Z,46.00
2019-03-01T02:53:55.278Z,46.00
2019-03-01T02:59:01.361Z,44.00
2019-03-01T03:04:11.475Z,47.00
2019-03-01T03:09:20.117Z,45.82
2019-03-01T03:14:27.627Z,46.00
2019-03-01T03:19:32.568Z,46.86
2019-03-01T03:24:40.225Z,45.00
2019-03-01T03:29:44.587Z,45.83
2019-03-01T03:34:53.925Z,45.44
2019-03-01T03:40:08.225Z,47.67
2019-03-01T03:45:15.892Z,49.22
2019-03-01T03:50:22.889Z,45.25
2019-03-01T03:55:31.148Z,46.56
2019-03-01T04:00:39.180Z,46.89
2019-03-01T04:05:44.127Z,48.00
2019-03-01T04:10:53.460Z,50.67
2019-03-01T04:15:57.030Z,46.67
2019-03-01T04:21:05.625Z,47.00
2019-03-01T04:26:12.482Z,48.00
2019-03-01T04:31:22.643Z,50.00
2019-03-01T04:36:32.786Z,49.33
2019-03-01T04:41:37.095Z,50.00
2019-03-01T04:46:41.452Z,47.00
2019-03-01T04:51:49.942Z,45.63
2019-03-01T04:56:54.442Z,49.50
2019-03-01T05:02:01.347Z,47.62
2019-03-01T05:07:12.393Z,48.78
2019-03-01T05:12:16.644Z,48.25
2019-03-01T05:17:25.383Z,50.12
2019-03-01T05:22:29.867Z,50.00
2019-03-01T05:27:37.484Z,49.25
2019-03-01T05:32:45.168Z,49.11
2019-03-01T05:37:49.355Z,48.00
2019-03-01T05:42:56.216Z,50.63
2019-03-01T05:48:05.488Z,50.00
2019-03-01T05:53:10.400Z,51.00
2019-03-01T05:58:20.399Z,51.13
2019-03-01T06:03:47.892Z,52.00
2019-03-01T06:09:02.186Z,51.67
2019-03-01T06:14:25.879Z,55.63
2019-03-01T06:19:35.500Z,54.89
2019-03-01T06:24:54.085Z,54.56
2019-03-01T06:30:09.012Z,51.11
2019-03-01T06:35:18.575Z,56.22
2019-03-01T06:40:32.417Z,50.88
2019-03-01T06:45:49.603Z,50.75
2019-03-01T06:50:55.221Z,50.00
2019-03-01T06:56:06.705Z,51.50
2019-03-01T07:01:13.732Z,48.00
2019-03-01T07:06:21.263Z,47.62
2019-03-01T07:11:28.693Z,49.88
2019-03-01T07:16:38.871Z,43.67
2019-03-01T07:21:43.873Z,45.71
2019-03-01T07:26:50.716Z,45.50
2019-03-01T07:31:59.924Z,44.00
2019-03-01T07:37:04.903Z,48.00
2019-03-01T07:42:08.967Z,46.25
2019-03-01T07:47:13.242Z,47.25
2019-03-01T07:52:17.659Z,45.00
2019-03-01T07:57:26.042Z,45.75
2019-03-01T08:02:39.730Z,45.22
2019-03-01T08:07:55.341Z,46.13
2019-03-01T08:12:55.928Z,46.00
2019-03-01T08:18:08.163Z,45.88
2019-03-01T08:23:14.541Z,44.22
2019-03-01T08:28:22.093Z,46.00
2019-03-01T08:33:29.787Z,45.67
2019-03-01T08:38:39.110Z,44.33
2019-03-01T08:43:48.115Z,42.38
2019-03-01T08:48:55.908Z,45.00
2019-03-01T08:54:00.985Z,44.00
2019-03-01T08:59:08.667Z,46.56
2019-03-01T09:04:17.741Z,45.78
2019-03-01T09:09:25.103Z,44.75
2019-03-01T09:14:34.612Z,43.00
2019-03-01T09:19:43.915Z,44.00
2019-03-01T09:24:47.562Z,44.67
2019-03-01T09:29:56.215Z,42.62
2019-03-01T09:35:08.187Z,42.62
2019-03-01T09:40:16.728Z,43.00
2019-03-01T09:45:35.770Z,44.44
2019-03-01T09:50:38.359Z,45.00
2019-03-01T09:55:46.472Z,46.22
2019-03-01T10:01:01.447Z,46.00
2019-03-01T10:06:12.132Z,47.22
2019-03-01T10:11:18.335Z,45.12
2019-03-01T10:16:25.280Z,48.11
2019-03-01T10:21:31.750Z,44.00
2019-03-01T10:26:39.223Z,44.00
2019-03-01T10:31:46.128Z,41.63
2019-03-01T10:36:53.041Z,47.38
2019-03-01T10:42:01.671Z,46.67
2019-03-01T10:47:05.422Z,46.33
2019-03-01T10:52:12.558Z,44.00
2019-03-01T10:57:16.913Z,44.50
2019-03-01T11:02:23.820Z,44.00
2019-03-01T11:07:33.131Z,43.83
2019-03-01T11:12:39.391Z,44.63
2019-03-01T11:17:46.256Z,44.75
2019-03-01T11:22:49.751Z,45.00
2019-03-01T11:27:55.774Z,45.75
2019-03-01T11:33:04.545Z,43.87
2019-03-01T11:38:08.727Z,47.17
2019-03-01T11:43:15.831Z,46.00
2019-03-01T11:48:23.675Z,45.00
2019-03-01T11:53:27.334Z,47.00
2019-03-01T11:58:35.947Z,43.38
2019-03-01T12:03:45.939Z,46.67
2019-03-01T12:08:54.502Z,45.63
2019-03-01T12:14:03.759Z,47.08
2019-03-01T12:19:08.728Z,49.00
2019-03-01T12:24:18.214Z,49.00
2019-03-01T12:29:26.215Z,45.33
2019-03-01T12:34:33.286Z,48.89
2019-03-01T12:39:42.393Z,46.50
2019-03-01T12:44:52.228Z,48.00
2019-03-01T12:50:01.670Z,49.63
2019-03-01T12:55:14.170Z,48.50
2019-03-01T13:00:22.436Z,46.00
2019-03-01T13:05:29.420Z,48.50
2019-03-01T13:10:40.413Z,48.87
2019-03-01T13:15:49.618Z,53.00
2019-03-01T13:20:54.891Z,52.13
2019-03-01T13:25:58.989Z,50.00
2019-03-01T13:31:02.986Z,50.00
2019-03-01T13:36:06.441Z,52.33
2019-03-01T13:41:12.187Z,63.00
2019-03-01T13:46:22.395Z,57.00
2019-03-01T13:51:30.259Z,52.00
2019-03-01T13:56:39.722Z,53.38
2019-03-01T14:01:43.259Z,51.00
2019-03-01T14:06:51.855Z,54.89
2019-03-01T14:12:00.511Z,52.62
2019-03-01T14:17:09.271Z,53.89
2019-03-01T14:22:18.089Z,59.00
2019-03-01T14:27:30.430Z,59.50
2019-03-01T14:32:41.276Z,53.00
2019-03-01T14:37:53.950Z,58.20
2019-03-01T14:43:03.617Z,59.67
2019-03-01T14:48:09.632Z,62.50
2019-03-01T14:53:19.968Z,60.89
2019-03-01T14:58:31.741Z,67.50
2019-03-01T15:03:42.434Z,64.44
2019-03-01T15:08:53.001Z,60.67
2019-03-01T15:14:04.159Z,67.11
2019-03-01T15:19:12.722Z,60.60
2019-03-01T15:24:21.557Z,67.90
2019-03-01T15:29:32.241Z,57.78
2019-03-01T15:34:36.071Z,60.00
2019-03-01T15:39:45.863Z,62.90
2019-03-01T15:44:56.692Z,66.80
2019-03-01T15:50:02.391Z,69.50
2019-03-01T15:55:11.950Z,70.75
2019-03-01T16:00:25.498Z,68.70
2019-03-01T16:05:38.285Z,68.00
2019-03-01T16:10:46.419Z,60.44
2019-03-01T16:15:53.130Z,67.00
2019-03-01T16:21:01.892Z,70.67
2019-03-01T16:26:10.215Z,68.50
2019-03-01T16:31:21.945Z,71.80
2019-03-01T16:36:33.029Z,71.33
2019-03-01T16:41:43.821Z,71.11
2019-03-01T16:46:50.355Z,73.50
2019-03-01T16:51:55.331Z,74.86
2019-03-01T16:57:06.346Z,69.40
2019-03-01T17:02:11.551Z,73.29
2019-03-01T17:07:15.193Z,67.00
2019-03-01T17:12:26.150Z,68.50
2019-03-01T17:17:36.813Z,71.78
2019-03-01T17:22:43.512Z,70.57
2019-03-01T17:27:49.552Z,75.67
2019-03-01T17:33:02.327Z,82.00
2019-03-01T17:38:10.718Z,88.45
2019-03-01T17:43:15.910Z,78.71
2019-03-01T17:48:25.846Z,77.64
2019-03-01T17:53:36.046Z,63.10
2019-03-01T17:58:40.150Z,45.00
2019-03-01T18:03:45.815Z,36.50
2019-03-01T18:08:54.714Z,37.00
2019-03-01T18:14:03.557Z,37.38
2019-03-01T18:19:10.670Z,37.50
2019-03-01T18:24:15.599Z,36.00
2019-03-01T18:29:21.474Z,39.88
2019-03-01T18:34:26.247Z,39.50
2019-03-01T18:39:30.391Z,33.00
2019-03-01T18:44:34.591Z,43.00
2019-03-01T18:49:40.531Z,35.50
2019-03-01T18:54:50.171Z,35.78
2019-03-01T18:59:56.435Z,36.00
2019-03-01T19:05:04.451Z,35.67
2019-03-01T19:10:10.589Z,33.13
2019-03-01T19:15:15.440Z,37.33
2019-03-01T19:20:26.026Z,32.00
2019-03-01T19:25:30.141Z,35.00
2019-03-01T19:30:37.250Z,33.78
2019-03-01T19:35:46.085Z,34.13
2019-03-01T19:40:55.571Z,36.67
2019-03-01T19:46:04.270Z,42.00
2019-03-01T19:51:13.088Z,37.38
2019-03-01T19:56:18.925Z,36.25
2019-03-01T20:01:25.707Z,37.78
2019-03-01T20:06:33.551Z,38.56
2019-03-01T20:11:42.121Z,41.88
2019-03-01T20:16:50.055Z,38.00
2019-03-01T20:21:57.311Z,39.00
2019-03-01T20:27:04.581Z,42.50
2019-03-01T20:32:15.760Z,39.13
2019-03-01T20:37:24.692Z,40.00
2019-03-01T20:42:33.379Z,42.38
2019-03-01T20:47:38.001Z,39.75
2019-03-01T20:52:46.794Z,38.13
2019-03-01T20:57:49.629Z,43.00
2019-03-01T21:02:56.618Z,39.33
2019-03-01T21:08:04.421Z,41.22
2019-03-01T21:13:13.434Z,44.00
2019-03-01T21:18:18.705Z,43.00
2019-03-01T21:23:22.539Z,44.00
2019-03-01T21:28:26.462Z,40.25
2019-03-01T21:33:37.102Z,41.50
2019-03-01T21:38:45.690Z,42.67
2019-03-01T21:43:55.043Z,43.38
2019-03-01T21:49:03.196Z,43.56
2019-03-01T21:54:12.567Z,42.75
2019-03-01T21:59:20.171Z,41.67
2019-03-01T22:04:28.844Z,44.33
2019-03-01T22:09:35.845Z,42.25
2019-03-01T22:14:45.742Z,45.33
2019-03-01T22:19:53.187Z,43.22
2019-03-01T22:25:02.319Z,44.00
2019-03-01T22:30:13.186Z,48.11
2019-03-01T22:35:20.113Z,47.62
2019-03-01T22:40:29.810Z,45.11
2019-03-01T22:45:38.005Z,42.89
2019-03-01T22:50:46.941Z,41.37
2019-03-01T22:55:56.689Z,38.78
2019-03-01T23:01:02.809Z,34.60
2019-03-01T23:06:07.082Z,39.75
2019-03-01T23:11:16.975Z,39.88
2019-03-01T23:16:21.626Z,39.50
2019-03-01T23:21:32.579Z,37.25
2019-03-01T23:26:35.606Z,35.00
2019-03-01T23:31:39.740Z,40.75
2019-03-01T23:36:47.587Z,38.50
2019-03-01T23:41:51.570Z,41.00
2019-03-01T23:46:59.541Z,39.38
2019-03-01T23:52:08.470Z,40.25
2019-03-01T23:57:18.314Z,37.13
